Allendale, NJ

3:34 PM EDT on April 21, 2015 (GMT -0400)
urban | | Change Station
CLOSE
Current Station
Personal Weather Station
Location: Allendale, NJ
Elevation: 377 ft
Nearby Weather Stations

Elev 377 ft 41.04 °N, 74.15 °W | Updated 12 minutes ago

Clear
Clear
66.7 °F
Feels Like 66.7 °F
N
5.3
Wind Variable Wind from West

Today
High -- | Low -- °F
--% Chance of Precip.
Yesterday
High -- | Low -- °F
Precip. -- in
6:08 AM 7:42 PM
Waxing Crescent, 12% visible
Pressure 29.67 in
Visibility 10.0 miles
Clouds Clear
Dew Point 33 °F
Humidity 28%
Rainfall 0.15 in
Snow Depth Not available.
UV 8 out of 12
Pollen 8.70 out of 12
Air Quality Not available.
Flu Activity Regional
METAR KCDW 211853Z 31016G23KT 10SM CLR 18/M03 A2965 RMK AO2 SLP045 T01781028

More Conditions Fewer Conditions

Pressure 29.67 in
Visibility 10.0 miles
Clouds Clear
Dew Point 33 °F
Humidity 28%
Rainfall 0.15 in
Snow Depth Not available.
UV 8 out of 12
Pollen 8.70 out of 12
Air Quality Not available.
Flu Activity Regional
METAR KCDW 211853Z 31016G23KT 10SM CLR 18/M03 A2965 RMK AO2 SLP045 T01781028

More Conditions Fewer Conditions

10-Day Weather Forecast

Almanac

Astronomy

Apr. 21, 2015 Rise Set
Actual Time
Civil Twilight
Nautical Twilight
Astronomical Twilight
Moon
Length of Visible Light
Length of Day
Tomorrow will be .
, % of the Moon is Illuminated

Today's Extremes

State Highs State Lows

Community

WunderPhotos

Upload Photos

1,815,514 photos uploaded!

WunderBlogs® & News

Nearby

Air Quality

  Air Quality AQ Index Pollutant
Not available.

Snow Depth

Station Depth Elevation

Earthquake Activity

City Distance Mag. Time & Date
Minimum magnitude displayed is 2.5.

Coastal Water Temperatures

Place Temperature

Stations

Nearby Weather Stations

Station Location Temp. Windchill Dew Point Humidity Wind Precip. Elev Updated Type